Time;durP1;ratioP1;P1;durP2;ratioP2;P2;SDS_P1;SDS_P2;PMS_P1;PMS_P2;Temp;Humidity;BMP_temperature;BMP_pressure;BME280_temperature;BME280_humidity;BME280_pressure;Samples;Min_cycle;Max_cycle;Signal;HPM_P1;HPM_P2
2022/05/06 05:00:38;;;;;;;14.40;12.93;;;14.50;97.20;;;;;;1719292;28;20276;-78
2022/05/06 05:01:29;;;;;;;15.95;14.32;;;14.50;97.20;;;;;;1720116;28;20205;-78
2022/05/06 05:02:20;;;;;;;16.07;14.47;;;14.50;97.20;;;;;;1720135;28;20304;-78
2022/05/06 05:03:12;;;;;;;16.80;15.02;;;14.50;97.20;;;;;;1721744;28;20233;-78
2022/05/06 05:04:03;;;;;;;15.07;13.68;;;14.60;97.20;;;;;;1722544;28;20202;-77
2022/05/06 05:04:57;;;;;;;15.13;13.63;;;14.60;97.20;;;;;;1722457;28;20213;-77
2022/05/06 05:05:49;;;;;;;16.02;14.38;;;14.60;97.20;;;;;;1722017;28;20229;-77
2022/05/06 05:06:40;;;;;;;15.75;14.10;;;14.60;97.20;;;;;;1722196;28;20206;-77
2022/05/06 05:07:32;;;;;;;15.50;14.00;;;14.60;97.20;;;;;;1721484;28;20198;-77
2022/05/06 05:08:24;;;;;;;17.40;14.68;;;14.60;97.20;;;;;;1715230;29;20458;-77
2022/05/06 05:09:14;;;;;;;15.27;13.88;;;14.60;97.20;;;;;;1715314;29;20213;-77
2022/05/06 05:10:08;;;;;;;14.80;13.40;;;14.60;97.20;;;;;;1715463;28;20202;-77
2022/05/06 05:11:02;;;;;;;15.57;14.07;;;14.60;97.20;;;;;;1715326;28;20264;-77
2022/05/06 05:11:54;;;;;;;16.42;14.90;;;14.60;97.20;;;;;;1715487;29;20209;-77
2022/05/06 05:12:45;;;;;;;16.00;14.30;;;14.60;97.20;;;;;;1715330;29;20206;-77
2022/05/06 05:13:38;;;;;;;15.60;14.10;;;14.60;97.20;;;;;;1715106;29;20266;-77
2022/05/06 05:14:29;;;;;;;16.20;14.70;;;14.60;97.20;;;;;;1713867;29;20209;-77
2022/05/06 05:15:22;;;;;;;15.43;14.02;;;14.60;97.20;;;;;;1713180;28;20230;-77
2022/05/06 05:16:14;;;;;;;15.23;13.82;;;14.60;97.20;;;;;;1714514;29;20237;-77
2022/05/06 05:17:06;;;;;;;15.70;14.07;;;14.60;97.20;;;;;;1713222;29;20257;-77
2022/05/06 05:17:57;;;;;;;15.23;13.75;;;14.70;97.20;;;;;;1716761;28;20198;-77
2022/05/06 05:18:49;;;;;;;15.18;13.77;;;14.60;97.20;;;;;;1719513;28;20194;-77
2022/05/06 05:19:40;;;;;;;15.35;14.00;;;14.60;97.20;;;;;;1720269;28;20205;-77
2022/05/06 05:20:32;;;;;;;16.27;13.27;;;14.60;97.20;;;;;;1721396;28;20338;-77
2022/05/06 05:21:23;;;;;;;15.25;13.85;;;14.60;97.20;;;;;;1721601;28;20213;-77
2022/05/06 05:22:15;;;;;;;15.53;13.97;;;14.60;97.20;;;;;;1721385;28;20232;-77
2022/05/06 05:23:06;;;;;;;16.70;15.00;;;14.60;97.20;;;;;;1721555;28;20202;-77
2022/05/06 05:23:58;;;;;;;15.87;14.37;;;14.60;97.20;;;;;;1721171;28;20238;-77
2022/05/06 05:24:49;;;;;;;16.40;14.73;;;14.60;97.20;;;;;;1721821;28;20216;-77
2022/05/06 05:25:41;;;;;;;14.98;13.55;;;14.60;97.20;;;;;;1721529;28;20248;-77
2022/05/06 05:26:32;;;;;;;16.63;15.13;;;14.60;97.20;;;;;;1721351;28;20210;-77
2022/05/06 05:27:23;;;;;;;15.00;13.70;;;14.60;97.20;;;;;;1719632;28;20245;-77
2022/05/06 05:28:14;;;;;;;16.55;14.75;;;14.60;97.20;;;;;;1719441;28;20213;-77
2022/05/06 05:29:06;;;;;;;18.73;14.77;;;14.60;97.20;;;;;;1721310;28;20240;-77
2022/05/06 05:29:57;;;;;;;16.92;15.25;;;14.60;97.20;;;;;;1720414;28;20587;-77
2022/05/06 05:30:49;;;;;;;15.63;14.02;;;14.60;97.20;;;;;;1720543;28;20642;-77
2022/05/06 05:31:43;;;;;;;15.43;13.82;;;14.60;97.20;;;;;;1720248;28;20213;-77
2022/05/06 05:32:35;;;;;;;14.75;13.30;;;14.60;97.20;;;;;;1720838;28;20244;-77
2022/05/06 05:33:26;;;;;;;16.13;13.43;;;14.60;97.20;;;;;;1720567;28;20218;-77
2022/05/06 05:34:18;;;;;;;15.37;13.97;;;14.60;97.20;;;;;;1720790;28;20217;-77
2022/05/06 05:35:09;;;;;;;15.90;14.20;;;14.60;97.20;;;;;;1717398;28;20221;-77
2022/05/06 05:36:00;;;;;;;15.83;14.23;;;14.60;97.20;;;;;;1717916;28;20257;-77
2022/05/06 05:36:51;;;;;;;16.08;14.38;;;14.60;97.20;;;;;;1717015;28;20448;-77
2022/05/06 05:37:43;;;;;;;14.97;13.43;;;14.60;97.20;;;;;;1716617;28;20293;-77
2022/05/06 05:38:34;;;;;;;15.48;13.35;;;14.60;97.20;;;;;;1715043;28;20481;-77
2022/05/06 05:39:26;;;;;;;16.30;14.70;;;14.60;97.20;;;;;;1714330;28;20209;-78
2022/05/06 05:40:18;;;;;;;14.88;13.38;;;14.70;97.20;;;;;;1716582;28;20456;-78
2022/05/06 05:41:08;;;;;;;14.43;13.13;;;14.60;97.20;;;;;;1716166;28;20209;-77
2022/05/06 05:42:00;;;;;;;14.20;12.93;;;14.60;97.20;;;;;;1715816;28;20198;-80
2022/05/06 05:42:51;;;;;;;14.68;13.27;;;14.60;97.20;;;;;;1716593;28;20213;-81
2022/05/06 05:48:20;;;;;;;12.73;11.52;;;14.60;97.20;;;;;;1715485;28;20236;-80
2022/05/06 05:49:11;;;;;;;13.13;11.90;;;14.60;97.20;;;;;;1716015;28;20209;-80
2022/05/06 05:50:03;;;;;;;13.30;12.10;;;14.60;97.20;;;;;;1715703;28;20216;-80
2022/05/06 05:50:54;;;;;;;14.57;13.02;;;14.60;97.20;;;;;;1715742;28;20237;-79
2022/05/06 05:51:45;;;;;;;13.60;12.40;;;14.60;97.20;;;;;;1716051;28;20206;-80
2022/05/06 05:52:36;;;;;;;14.10;12.70;;;14.60;97.20;;;;;;1715788;28;20696;-80
2022/05/06 05:53:28;;;;;;;13.87;12.50;;;14.60;97.20;;;;;;1717838;28;20657;-80
2022/05/06 05:54:19;;;;;;;12.80;11.70;;;14.60;97.20;;;;;;1717210;28;20198;-79
2022/05/06 05:55:10;;;;;;;14.03;12.73;;;14.60;97.20;;;;;;1712953;28;20194;-79
2022/05/06 05:56:01;;;;;;;14.60;13.30;;;14.60;97.20;;;;;;1714500;28;20369;-79
2022/05/06 05:56:54;;;;;;;13.43;12.10;;;14.60;97.20;;;;;;1717600;28;20194;-79
2022/05/06 05:57:46;;;;;;;14.70;13.23;;;14.60;97.20;;;;;;1718626;28;20213;-77
2022/05/06 05:58:37;;;;;;;13.18;11.95;;;14.60;97.20;;;;;;1716032;28;20201;-77
2022/05/06 05:59:28;;;;;;;15.02;13.63;;;14.60;97.20;;;;;;1715740;28;20676;-77
2022/05/06 06:00:21;;;;;;;13.50;12.15;;;14.60;97.20;;;;;;1715375;28;20197;-77
2022/05/06 06:01:11;;;;;;;14.35;12.85;;;14.60;97.20;;;;;;1715319;28;20634;-77
2022/05/06 06:02:03;;;;;;;17.20;12.40;;;14.60;97.20;;;;;;1715466;28;20621;-77
2022/05/06 06:02:56;;;;;;;13.40;12.15;;;14.60;97.20;;;;;;1715338;28;20461;-77
2022/05/06 06:03:48;;;;;;;12.90;11.80;;;14.60;97.20;;;;;;1715373;28;20697;-77
2022/05/06 06:04:41;;;;;;;12.57;11.27;;;14.60;97.20;;;;;;1715629;28;20577;-77
2022/05/06 06:05:33;;;;;;;12.55;11.45;;;14.60;97.20;;;;;;1715426;28;20202;-77
2022/05/06 06:06:24;;;;;;;14.15;12.10;;;14.60;97.20;;;;;;1715214;28;20240;-77
2022/05/06 06:07:17;;;;;;;13.73;12.43;;;14.60;97.20;;;;;;1714587;28;20202;-77
2022/05/06 06:08:07;;;;;;;13.13;12.00;;;14.60;97.20;;;;;;1715092;28;20811;-77
2022/05/06 06:08:59;;;;;;;13.27;11.97;;;14.50;97.20;;;;;;1714864;28;20737;-77
2022/05/06 06:09:50;;;;;;;12.93;11.73;;;14.50;97.20;;;;;;1714812;28;20484;-77
2022/05/06 06:10:42;;;;;;;12.90;11.80;;;14.50;97.20;;;;;;1714582;28;20705;-77
2022/05/06 06:11:32;;;;;;;13.07;11.88;;;14.50;97.20;;;;;;1714810;28;20445;-77
2022/05/06 06:12:24;;;;;;;13.07;11.80;;;14.50;97.20;;;;;;1714085;28;20204;-77
2022/05/06 06:13:16;;;;;;;13.93;12.65;;;14.50;97.20;;;;;;1714873;28;20292;-77
2022/05/06 06:14:08;;;;;;;12.40;11.30;;;14.50;97.20;;;;;;1716516;28;20237;-77
2022/05/06 06:14:59;;;;;;;14.05;12.57;;;14.50;97.20;;;;;;1714519;28;20205;-77
2022/05/06 06:15:51;;;;;;;13.57;11.88;;;14.50;97.20;;;;;;1714696;28;20201;-77
2022/05/06 06:16:42;;;;;;;13.30;12.00;;;14.50;97.20;;;;;;1714648;28;20696;-77
2022/05/06 06:17:34;;;;;;;13.27;11.98;;;14.50;97.20;;;;;;1714565;28;20620;-77
2022/05/06 06:18:27;;;;;;;13.52;12.15;;;14.50;97.20;;;;;;1714386;28;20209;-77
2022/05/06 06:19:19;;;;;;;12.43;11.27;;;14.50;97.20;;;;;;1714521;28;20202;-77
2022/05/06 06:20:11;;;;;;;14.30;12.63;;;14.60;97.20;;;;;;1714709;28;20217;-77
2022/05/06 06:21:03;;;;;;;12.60;11.40;;;14.60;97.20;;;;;;1714632;28;20666;-77
2022/05/06 06:21:54;;;;;;;14.35;12.82;;;14.60;97.20;;;;;;1714763;28;20225;-77
2022/05/06 06:22:45;;;;;;;13.97;12.67;;;14.60;97.20;;;;;;1714709;28;20212;-77
2022/05/06 06:23:36;;;;;;;14.00;12.57;;;14.60;97.20;;;;;;1714776;28;20209;-76
2022/05/06 06:24:29;;;;;;;13.23;11.90;;;14.60;97.20;;;;;;1715210;28;20210;-77
2022/05/06 06:25:20;;;;;;;13.40;12.10;;;14.70;97.20;;;;;;1715273;28;20453;-77
2022/05/06 06:26:12;;;;;;;13.80;12.40;;;14.70;97.20;;;;;;1715323;28;20226;-77
2022/05/06 06:27:03;;;;;;;13.52;11.88;;;14.70;97.20;;;;;;1714758;28;20454;-77
2022/05/06 06:27:55;;;;;;;13.80;12.50;;;14.80;97.20;;;;;;1714158;28;20206;-77
2022/05/06 06:28:45;;;;;;;14.43;12.93;;;14.80;97.20;;;;;;1714388;28;20460;-77
2022/05/06 06:29:37;;;;;;;13.50;12.17;;;14.80;97.20;;;;;;1714968;28;20202;-77
2022/05/06 06:30:28;;;;;;;14.20;12.90;;;14.80;97.20;;;;;;1714462;28;20234;-77
2022/05/06 06:31:19;;;;;;;15.37;13.77;;;14.90;97.20;;;;;;1714736;28;20213;-77
2022/05/06 06:32:10;;;;;;;12.85;11.65;;;14.90;97.20;;;;;;1714653;28;20234;-77
2022/05/06 06:33:02;;;;;;;14.47;13.07;;;14.90;97.20;;;;;;1714536;28;20205;-77
2022/05/06 06:33:54;;;;;;;13.30;11.98;;;14.90;97.20;;;;;;1714725;28;20665;-77
2022/05/06 06:34:46;;;;;;;15.10;13.65;;;14.90;97.20;;;;;;1714670;28;20201;-77
2022/05/06 06:35:36;;;;;;;13.45;12.10;;;14.90;97.20;;;;;;1714674;28;20202;-77
2022/05/06 06:36:29;;;;;;;13.93;12.53;;;14.90;97.20;;;;;;1714415;28;20711;-77
2022/05/06 06:37:20;;;;;;;14.60;13.10;;;14.90;97.20;;;;;;1714767;28;20202;-77
2022/05/06 06:38:11;;;;;;;15.73;14.13;;;14.90;97.20;;;;;;1714483;28;20280;-77
2022/05/06 06:39:03;;;;;;;13.40;12.05;;;14.90;97.20;;;;;;1714520;28;20686;-77
2022/05/06 06:39:54;;;;;;;13.15;11.95;;;14.90;97.20;;;;;;1714565;28;20198;-77
2022/05/06 06:40:45;;;;;;;13.35;11.93;;;14.90;97.20;;;;;;1714470;28;20222;-77
2022/05/06 06:41:37;;;;;;;12.90;11.80;;;14.90;97.20;;;;;;1714628;28;20206;-77
2022/05/06 06:42:28;;;;;;;13.80;12.50;;;14.90;97.20;;;;;;1714531;28;20449;-77
2022/05/06 06:43:20;;;;;;;14.20;11.13;;;14.90;97.20;;;;;;1714575;28;20284;-77
2022/05/06 06:44:11;;;;;;;14.27;12.77;;;14.80;97.20;;;;;;1714535;28;20503;-77
2022/05/06 06:45:02;;;;;;;13.38;12.15;;;14.80;97.20;;;;;;1714475;28;20251;-77
2022/05/06 06:45:56;;;;;;;16.95;13.57;;;14.80;97.20;;;;;;1714388;28;20201;-77
2022/05/06 06:46:48;;;;;;;14.85;13.25;;;14.80;97.20;;;;;;1714460;28;20669;-77
2022/05/06 06:47:39;;;;;;;14.05;12.57;;;14.80;97.20;;;;;;1714155;28;20209;-77
2022/05/06 06:48:31;;;;;;;13.82;12.60;;;14.80;97.20;;;;;;1714167;28;20240;-77
2022/05/06 06:49:23;;;;;;;13.35;12.15;;;14.80;97.20;;;;;;1714461;28;20206;-77
2022/05/06 06:50:14;;;;;;;13.95;12.65;;;14.80;97.20;;;;;;1714597;28;20206;-77
2022/05/06 06:51:05;;;;;;;13.90;12.45;;;14.70;97.20;;;;;;1714317;28;20603;-77
2022/05/06 06:51:57;;;;;;;13.40;11.97;;;14.70;97.20;;;;;;1714448;28;20563;-77
2022/05/06 06:52:47;;;;;;;13.65;12.35;;;14.70;97.20;;;;;;1713585;28;20198;-77
2022/05/06 06:53:39;;;;;;;13.80;12.50;;;14.70;97.20;;;;;;1714476;28;20284;-77
2022/05/06 06:54:30;;;;;;;14.60;13.20;;;14.70;97.20;;;;;;1714510;28;20621;-77
2022/05/06 06:55:22;;;;;;;14.00;12.60;;;14.70;97.20;;;;;;1714446;28;20658;-77
2022/05/06 06:56:13;;;;;;;14.85;12.98;;;14.70;97.20;;;;;;1714662;28;20234;-77
2022/05/06 06:57:06;;;;;;;17.53;14.20;;;14.60;97.20;;;;;;1714167;28;20205;-77
2022/05/06 06:57:56;;;;;;;14.63;13.13;;;14.60;97.20;;;;;;1707795;29;20694;-77
2022/05/06 06:58:48;;;;;;;14.63;12.77;;;14.60;97.20;;;;;;1707585;28;20674;-77
2022/05/06 06:59:40;;;;;;;14.80;12.90;;;14.60;97.20;;;;;;1707635;29;20202;-77
2022/05/06 07:00:31;;;;;;;15.38;13.85;;;14.60;97.20;;;;;;1711176;28;20218;-77
2022/05/06 07:01:23;;;;;;;14.40;13.07;;;14.60;97.20;;;;;;1714352;28;20202;-77
2022/05/06 07:02:14;;;;;;;15.45;13.68;;;14.60;97.20;;;;;;1714265;28;20898;-77
2022/05/06 07:03:05;;;;;;;14.50;13.03;;;14.60;97.20;;;;;;1714412;28;20208;-77
2022/05/06 07:03:56;;;;;;;13.35;12.05;;;14.60;97.20;;;;;;1714422;28;20202;-77
2022/05/06 07:04:51;;;;;;;15.93;14.23;;;14.60;97.20;;;;;;1714343;28;20212;-77
2022/05/06 07:11:52;;;;;;;13.85;12.55;;;14.70;97.20;;;;;;1714293;28;20267;-77
2022/05/06 07:11:56;;;;;;;14.45;12.75;;;14.70;97.20;;;;;;1700275;29;20690;-77
2022/05/06 07:12:47;;;;;;;13.73;12.32;;;14.70;97.20;;;;;;1700276;29;20215;-77
2022/05/06 07:13:39;;;;;;;14.10;12.70;;;14.70;97.20;;;;;;1700390;29;20226;-77
2022/05/06 07:14:29;;;;;;;13.23;11.88;;;14.70;97.20;;;;;;1700317;29;20238;-77
2022/05/06 07:15:23;;;;;;;13.77;12.43;;;14.70;97.20;;;;;;1700273;29;20226;-77
2022/05/06 07:16:13;;;;;;;14.45;13.00;;;14.70;97.20;;;;;;1700406;29;20218;-77
2022/05/06 07:17:06;;;;;;;14.67;12.90;;;14.70;97.20;;;;;;1700261;29;20249;-77
2022/05/06 07:17:56;;;;;;;14.13;12.93;;;14.70;97.20;;;;;;1713141;28;20201;-77
2022/05/06 07:18:48;;;;;;;13.63;12.30;;;14.70;97.20;;;;;;1713311;28;20202;-77
2022/05/06 07:19:40;;;;;;;15.25;13.18;;;14.70;97.20;;;;;;1714266;28;20208;-77
2022/05/06 07:20:32;;;;;;;14.05;12.48;;;14.80;97.20;;;;;;1714300;28;20719;-77
2022/05/06 07:21:24;;;;;;;13.65;12.30;;;14.80;97.20;;;;;;1714229;28;20210;-77
2022/05/06 07:22:15;;;;;;;14.30;12.80;;;14.80;97.20;;;;;;1714408;28;20681;-77
2022/05/06 07:23:06;;;;;;;13.45;12.10;;;14.80;97.20;;;;;;1714179;28;20274;-77
2022/05/06 07:23:58;;;;;;;13.70;12.37;;;14.80;97.20;;;;;;1714356;28;20201;-77
2022/05/06 07:24:48;;;;;;;14.20;12.90;;;14.80;97.20;;;;;;1714328;28;20213;-77
2022/05/06 07:25:40;;;;;;;14.00;12.60;;;14.80;97.20;;;;;;1714452;28;20705;-77
2022/05/06 07:26:31;;;;;;;13.45;12.05;;;14.80;97.20;;;;;;1714290;28;20226;-77
2022/05/06 07:27:23;;;;;;;14.07;12.53;;;14.80;97.20;;;;;;1714267;28;20202;-77
2022/05/06 07:28:14;;;;;;;15.27;13.27;;;14.80;97.20;;;;;;1714039;28;20217;-77
2022/05/06 07:29:06;;;;;;;13.27;11.90;;;14.80;97.20;;;;;;1714217;28;20669;-77
2022/05/06 07:29:57;;;;;;;13.38;12.02;;;14.80;97.20;;;;;;1714205;28;20236;-77
2022/05/06 07:30:48;;;;;;;15.47;11.90;;;14.80;97.20;;;;;;1714206;28;20229;-77
2022/05/06 07:31:39;;;;;;;13.02;11.30;;;14.80;97.20;;;;;;1714126;28;20205;-77
2022/05/06 07:32:31;;;;;;;13.23;11.83;;;14.80;97.20;;;;;;1714458;28;20198;-77
2022/05/06 07:33:22;;;;;;;13.13;11.73;;;14.80;97.20;;;;;;1714229;28;20460;-77
2022/05/06 07:34:15;;;;;;;13.00;11.10;;;14.80;97.20;;;;;;1714234;28;20280;-77
2022/05/06 07:35:07;;;;;;;11.88;10.77;;;14.80;97.20;;;;;;1714622;28;20206;-77
2022/05/06 07:36:00;;;;;;;12.13;10.93;;;14.80;97.20;;;;;;1715748;28;20252;-77
2022/05/06 07:36:51;;;;;;;12.43;11.25;;;14.90;97.20;;;;;;1714448;28;20288;-77
2022/05/06 07:37:43;;;;;;;11.70;10.57;;;14.90;97.20;;;;;;1713944;28;20209;-77
2022/05/06 07:38:34;;;;;;;13.32;12.13;;;14.90;97.20;;;;;;1713851;28;20452;-77
2022/05/06 07:39:25;;;;;;;12.40;10.80;;;14.90;97.20;;;;;;1714199;28;20212;-77
2022/05/06 07:40:16;;;;;;;11.57;10.40;;;14.90;97.20;;;;;;1714130;28;20449;-77
2022/05/06 07:41:08;;;;;;;11.73;10.50;;;14.90;97.20;;;;;;1714240;28;20198;-77
2022/05/06 07:42:00;;;;;;;12.38;11.20;;;14.90;97.20;;;;;;1714159;28;20245;-77
2022/05/06 07:42:51;;;;;;;12.32;11.23;;;14.90;97.20;;;;;;1714194;28;20206;-77
2022/05/06 07:43:43;;;;;;;12.10;10.82;;;14.90;97.20;;;;;;1714147;28;20206;-77
2022/05/06 07:44:34;;;;;;;11.60;10.55;;;14.90;97.20;;;;;;1714166;28;20586;-77
2022/05/06 07:45:26;;;;;;;11.73;10.60;;;14.90;97.20;;;;;;1714093;28;20280;-77
2022/05/06 07:46:16;;;;;;;12.57;11.48;;;14.90;97.20;;;;;;1714226;28;20591;-77
2022/05/06 07:47:08;;;;;;;12.00;10.80;;;14.90;97.20;;;;;;1714247;28;20229;-77
2022/05/06 07:48:00;;;;;;;13.32;11.70;;;14.90;97.20;;;;;;1713845;28;20232;-77
2022/05/06 07:48:51;;;;;;;11.55;10.50;;;14.90;97.20;;;;;;1714126;28;20285;-77
2022/05/06 07:49:42;;;;;;;12.65;11.00;;;14.90;97.20;;;;;;1714096;28;20674;-77
2022/05/06 07:50:34;;;;;;;11.27;10.17;;;14.90;97.20;;;;;;1714177;28;20600;-77
2022/05/06 07:51:27;;;;;;;12.60;11.20;;;14.90;97.20;;;;;;1714165;28;20657;-77
2022/05/06 07:52:19;;;;;;;12.32;11.13;;;14.90;97.20;;;;;;1714166;28;20205;-77
2022/05/06 07:53:11;;;;;;;14.63;11.57;;;14.90;97.20;;;;;;1714204;28;20205;-77
2022/05/06 07:54:03;;;;;;;13.82;11.40;;;14.90;97.20;;;;;;1714034;28;20588;-77
2022/05/06 07:54:54;;;;;;;11.20;10.10;;;14.90;97.20;;;;;;1714104;28;20551;-77
2022/05/06 07:55:46;;;;;;;13.00;11.70;;;14.90;97.20;;;;;;1714155;28;20248;-77
2022/05/06 07:56:38;;;;;;;11.68;10.65;;;14.90;97.20;;;;;;1714043;28;20449;-77
2022/05/06 07:57:28;;;;;;;12.27;11.02;;;14.90;97.20;;;;;;1713931;28;20291;-77
2022/05/06 07:58:20;;;;;;;12.13;11.03;;;14.90;97.20;;;;;;1713857;28;20197;-76
2022/05/06 07:59:11;;;;;;;13.57;11.93;;;14.90;97.20;;;;;;1712673;28;20263;-77
2022/05/06 08:00:04;;;;;;;12.32;10.50;;;14.90;97.20;;;;;;1714509;28;20224;-77
2022/05/06 08:00:56;;;;;;;11.35;10.35;;;14.90;97.20;;;;;;1711819;28;20237;-77
2022/05/06 08:05:16;;;;;;;11.77;10.65;;;14.80;97.20;;;;;;1713944;28;20204;-77
2022/05/06 08:06:07;;;;;;;12.30;10.38;;;14.80;97.20;;;;;;1714122;28;20194;-77
2022/05/06 08:07:00;;;;;;;11.85;10.60;;;14.80;97.20;;;;;;1711849;28;20225;-77
2022/05/06 08:07:51;;;;;;;12.52;11.23;;;14.80;97.20;;;;;;1713194;28;20241;-77
2022/05/06 08:08:43;;;;;;;11.43;10.33;;;14.80;97.20;;;;;;1710953;28;20198;-77
2022/05/06 08:09:34;;;;;;;11.35;9.82;;;14.80;97.20;;;;;;1713578;28;20201;-76
2022/05/06 08:10:26;;;;;;;12.18;11.07;;;14.80;97.20;;;;;;1711478;28;20712;-77
2022/05/06 08:11:18;;;;;;;13.10;11.35;;;14.80;97.20;;;;;;1709917;28;20617;-77
2022/05/06 08:12:10;;;;;;;11.77;10.60;;;14.80;97.20;;;;;;1712309;28;20284;-77
2022/05/06 08:13:01;;;;;;;13.65;10.95;;;14.80;97.20;;;;;;1707256;29;20210;-77
2022/05/06 08:13:53;;;;;;;12.30;11.02;;;14.80;97.20;;;;;;1707444;29;20198;-77
2022/05/06 08:14:44;;;;;;;12.55;11.15;;;14.80;97.20;;;;;;1707291;29;20203;-77
2022/05/06 08:15:36;;;;;;;12.88;10.13;;;14.80;97.20;;;;;;1707533;28;20666;-78
2022/05/06 08:16:27;;;;;;;13.07;10.60;;;14.80;97.20;;;;;;1707260;29;20206;-77
2022/05/06 08:17:19;;;;;;;10.90;9.90;;;14.80;97.20;;;;;;1707447;28;20198;-77
2022/05/06 08:18:09;;;;;;;12.20;11.10;;;14.80;97.20;;;;;;1712514;28;20620;-78
2022/05/06 08:19:01;;;;;;;12.10;10.83;;;14.80;97.20;;;;;;1714010;28;20569;-77
2022/05/06 08:19:52;;;;;;;12.07;10.88;;;14.80;97.20;;;;;;1713634;28;20447;-77
2022/05/06 08:20:44;;;;;;;11.43;10.40;;;14.90;97.20;;;;;;1713891;28;20231;-77
2022/05/06 08:21:34;;;;;;;10.40;9.50;;;14.90;97.20;;;;;;1714140;28;20236;-77
2022/05/06 08:22:28;;;;;;;13.03;11.73;;;14.90;97.20;;;;;;1714119;28;20206;-77
2022/05/06 08:23:19;;;;;;;14.68;11.63;;;14.90;97.20;;;;;;1714053;28;20247;-77
2022/05/06 08:24:11;;;;;;;12.18;10.75;;;14.90;97.20;;;;;;1713891;28;20230;-77
2022/05/06 08:25:03;;;;;;;12.80;11.50;;;14.90;97.20;;;;;;1714225;28;20206;-77
2022/05/06 08:25:55;;;;;;;12.05;10.73;;;15.00;97.20;;;;;;1714010;28;20201;-78
2022/05/06 08:26:46;;;;;;;12.13;11.02;;;15.00;97.20;;;;;;1713884;28;20206;-77
2022/05/06 08:27:38;;;;;;;12.45;11.07;;;15.00;97.20;;;;;;1713703;28;20201;-77
2022/05/06 08:28:29;;;;;;;11.48;10.43;;;15.10;97.20;;;;;;1713619;28;20229;-77
2022/05/06 08:29:22;;;;;;;13.00;10.30;;;15.10;97.20;;;;;;1713941;28;20610;-77
2022/05/06 08:30:13;;;;;;;11.48;10.15;;;15.10;97.20;;;;;;1713912;28;20205;-77
2022/05/06 08:31:05;;;;;;;13.63;10.20;;;15.20;97.20;;;;;;1713958;28;20714;-77
2022/05/06 08:31:56;;;;;;;11.70;10.60;;;15.20;97.20;;;;;;1713986;28;20212;-77
2022/05/06 08:32:48;;;;;;;11.63;10.53;;;15.20;97.20;;;;;;1714036;28;20206;-77
2022/05/06 08:33:39;;;;;;;12.32;11.23;;;15.30;97.20;;;;;;1713964;28;20283;-77
2022/05/06 08:34:31;;;;;;;10.93;9.90;;;15.30;97.20;;;;;;1715907;28;20213;-77
2022/05/06 08:35:22;;;;;;;11.55;10.45;;;15.30;97.20;;;;;;1714637;28;20220;-77
2022/05/06 08:36:14;;;;;;;11.90;10.30;;;15.30;97.20;;;;;;1714142;28;20284;-77
2022/05/06 08:37:05;;;;;;;10.48;9.50;;;15.30;97.20;;;;;;1714003;28;20220;-77
2022/05/06 08:37:59;;;;;;;11.05;9.77;;;15.40;97.20;;;;;;1714520;28;20654;-77
2022/05/06 08:38:49;;;;;;;10.77;9.38;;;15.40;97.20;;;;;;1715762;28;20636;-77
2022/05/06 08:39:41;;;;;;;11.70;9.30;;;15.40;97.20;;;;;;1714414;28;20613;-78
2022/05/06 08:40:35;;;;;;;10.70;9.68;;;15.40;97.20;;;;;;1714215;28;20735;-77
2022/05/06 08:41:28;;;;;;;11.80;10.52;;;15.50;97.20;;;;;;1713993;28;20208;-77
2022/05/06 08:42:21;;;;;;;10.20;9.20;;;15.50;97.20;;;;;;1714018;28;20229;-78
2022/05/06 08:43:14;;;;;;;10.07;9.27;;;15.50;97.20;;;;;;1714083;28;20233;-78
2022/05/06 08:51:18;;;;;;;8.73;8.02;;;15.90;97.20;;;;;;1714368;28;20625;-79
2022/05/06 08:52:11;;;;;;;10.20;9.20;;;16.00;97.20;;;;;;1714225;28;20618;-78
2022/05/06 08:53:06;;;;;;;11.13;8.57;;;16.00;97.20;;;;;;1714018;28;20708;-79
2022/05/06 08:53:57;;;;;;;12.95;10.02;;;16.00;97.20;;;;;;1714031;28;20735;-77
2022/05/06 08:54:51;;;;;;;10.13;9.07;;;16.10;97.20;;;;;;1713900;28;20355;-77
2022/05/06 08:55:41;;;;;;;10.18;9.18;;;16.10;97.20;;;;;;1713709;28;20205;-78
2022/05/06 08:56:33;;;;;;;10.70;9.73;;;16.10;97.20;;;;;;1713970;28;20197;-78
2022/05/06 08:57:24;;;;;;;11.13;10.02;;;16.10;97.20;;;;;;1713944;28;20202;-77
2022/05/06 08:58:16;;;;;;;9.97;8.97;;;16.10;97.20;;;;;;1713605;28;20296;-81
2022/05/06 08:59:08;;;;;;;9.30;8.25;;;16.10;97.20;;;;;;1714087;28;20453;-75
2022/05/06 09:00:00;;;;;;;9.88;8.98;;;16.10;97.20;;;;;;1713731;28;20201;-76
2022/05/06 09:00:59;;;;;;;11.13;8.80;;;16.10;97.20;;;;;;1713661;28;20241;-76
2022/05/06 09:01:52;;;;;;;10.73;8.75;;;16.10;97.20;;;;;;1713908;28;20957;-76
2022/05/06 09:02:43;;;;;;;9.73;8.73;;;16.10;97.20;;;;;;1713662;28;20267;-77
2022/05/06 09:03:38;;;;;;;8.63;7.83;;;16.10;97.20;;;;;;1713818;28;20288;-76
2022/05/06 09:04:28;;;;;;;10.00;8.10;;;16.10;97.20;;;;;;1713872;28;20694;-75
2022/05/06 09:05:21;;;;;;;9.43;8.30;;;16.20;97.20;;;;;;1713464;28;20228;-77
2022/05/06 09:06:20;;;;;;;8.80;8.00;;;16.20;97.20;;;;;;1713819;28;20701;-75
2022/05/06 09:07:19;;;;;;;9.65;8.65;;;16.30;97.20;;;;;;1713470;28;22165;-76
2022/05/06 09:08:12;;;;;;;11.27;8.90;;;16.40;97.20;;;;;;1713151;28;20208;-76
2022/05/06 09:09:04;;;;;;;9.43;8.00;;;16.40;97.20;;;;;;1707039;29;20229;-76
2022/05/06 09:10:12;;;;;;;9.02;8.13;;;16.40;97.20;;;;;;1707038;29;20207;-76
2022/05/06 09:11:07;;;;;;;13.35;9.00;;;16.50;97.20;;;;;;1706852;29;20238;-76
2022/05/06 09:13:11;;;;;;;10.32;8.52;;;16.50;97.20;;;;;;1707221;29;20202;-76
2022/05/06 09:14:03;;;;;;;11.32;8.63;;;16.50;97.20;;;;;;1706513;29;20220;-76
2022/05/06 09:17:30;;;;;;;8.93;7.80;;;16.60;97.20;;;;;;1706432;29;20205;-77
2022/05/06 09:18:22;;;;;;;8.90;8.05;;;16.60;97.20;;;;;;1706786;28;20237;-76
2022/05/06 09:19:19;;;;;;;10.48;8.30;;;16.60;97.20;;;;;;1706893;29;20198;-76
2022/05/06 09:20:19;;;;;;;10.10;9.05;;;16.60;97.20;;;;;;1706988;29;20297;-77
2022/05/06 09:21:13;;;;;;;9.43;8.50;;;16.60;97.20;;;;;;1707069;28;20265;-76
2022/05/06 09:22:06;;;;;;;9.40;8.45;;;16.60;97.20;;;;;;1706949;29;20213;-76
2022/05/06 09:22:58;;;;;;;8.68;7.65;;;16.60;97.20;;;;;;1707032;29;20290;-76
2022/05/06 09:23:50;;;;;;;8.60;7.65;;;16.60;97.20;;;;;;1709271;28;20207;-76
2022/05/06 09:24:43;;;;;;;8.82;8.02;;;16.60;97.20;;;;;;1713690;28;20210;-76
2022/05/06 09:25:38;;;;;;;9.25;8.35;;;16.70;97.20;;;;;;1713701;28;20257;-76
2022/05/06 09:26:30;;;;;;;9.95;8.60;;;16.70;97.20;;;;;;1713640;28;20590;-76
2022/05/06 09:27:21;;;;;;;9.05;8.13;;;16.80;97.20;;;;;;1713448;28;20226;-76
2022/05/06 09:28:25;;;;;;;9.32;8.38;;;16.80;97.20;;;;;;1713235;28;20296;-76
2022/05/06 09:29:26;;;;;;;10.88;8.48;;;16.80;97.20;;;;;;1713547;28;20662;-76
2022/05/06 09:30:18;;;;;;;8.52;7.55;;;16.80;97.20;;;;;;1713605;28;20209;-76
2022/05/06 09:31:10;;;;;;;8.65;7.85;;;16.80;97.20;;;;;;1713691;28;20234;-76
2022/05/06 09:32:22;;;;;;;13.98;9.07;;;16.80;97.20;;;;;;1713736;28;20657;-76
2022/05/06 09:33:25;;;;;;;10.73;9.60;;;16.80;97.20;;;;;;1713710;28;20206;-76
2022/05/06 09:34:16;;;;;;;10.10;9.10;;;16.80;97.20;;;;;;1713486;28;20210;-76
2022/05/06 09:35:13;;;;;;;9.83;8.77;;;16.80;97.20;;;;;;1713705;28;20288;-76
2022/05/06 09:36:23;;;;;;;9.38;8.43;;;16.80;97.20;;;;;;1713580;28;20253;-76
2022/05/06 09:37:31;;;;;;;11.23;9.02;;;16.80;97.20;;;;;;1713699;28;20570;-75
2022/05/06 09:38:24;;;;;;;11.23;9.05;;;16.80;97.20;;;;;;1712051;28;20210;-75
2022/05/06 09:39:16;;;;;;;10.10;8.60;;;16.80;97.20;;;;;;1713616;28;20221;-76
2022/05/06 09:40:11;;;;;;;8.77;7.95;;;16.80;97.20;;;;;;1713632;28;20206;-76
2022/05/06 09:41:19;;;;;;;10.25;9.23;;;16.80;97.20;;;;;;1713580;28;20202;-76
2022/05/06 09:42:10;;;;;;;9.13;8.32;;;16.90;97.20;;;;;;1714415;28;20625;-75
2022/05/06 09:43:02;;;;;;;8.67;7.80;;;16.90;97.20;;;;;;1714870;28;20198;-76
2022/05/06 09:43:58;;;;;;;9.52;8.48;;;16.90;97.20;;;;;;1714726;28;20944;-76
2022/05/06 09:44:50;;;;;;;11.02;8.45;;;17.00;97.20;;;;;;1714937;28;20202;-76
2022/05/06 09:45:43;;;;;;;9.27;8.13;;;17.00;97.20;;;;;;1714972;28;20206;-76
2022/05/06 09:46:35;;;;;;;9.75;8.65;;;17.00;97.20;;;;;;1714775;28;20241;-76
2022/05/06 09:47:26;;;;;;;10.05;9.05;;;17.00;97.20;;;;;;1714659;28;20202;-75
2022/05/06 09:48:18;;;;;;;8.32;7.53;;;17.10;97.20;;;;;;1714539;28;20225;-76
2022/05/06 09:49:10;;;;;;;9.38;8.07;;;17.20;97.20;;;;;;1714794;28;20241;-76
2022/05/06 09:50:04;;;;;;;8.05;7.25;;;17.20;97.20;;;;;;1714757;28;20244;-77
2022/05/06 09:50:55;;;;;;;9.40;8.40;;;17.30;97.20;;;;;;1714869;28;20382;-77